Time;durP1;ratioP1;P1;durP2;ratioP2;P2;SDS_P1;SDS_P2;PMS_P1;PMS_P2;Temp;Humidity;BMP_temperature;BMP_pressure;BME280_temperature;BME280_humidity;BME280_pressure;Samples;Min_cycle;Max_cycle;Signal;HPM_P1;HPM_P2
2022/04/22 04:32:51;;;;;;;;;9.25;7.75;;;;;15.83;44.12;99890.03;5096954;27;45616;-73
2022/04/22 04:35:16;;;;;;;;;8.50;6.25;;;;;15.75;43.77;99868.19;5097843;27;45844;-75
2022/04/22 04:37:42;;;;;;;;;7.25;7.25;;;;;15.82;43.59;99891.03;5097401;27;45694;-74
2022/04/22 04:40:10;;;;;;;;;8.75;7.50;;;;;15.79;43.61;99883.19;5097218;27;45306;-73
2022/04/22 04:42:36;;;;;;;;;11.50;11.25;;;;;15.80;43.60;99884.03;5097386;27;45591;-73
2022/04/22 04:45:06;;;;;;;;;10.00;6.00;;;;;15.75;43.81;99870.03;5097593;27;45548;-75
2022/04/22 04:47:41;;;;;;;;;11.50;9.25;;;;;15.75;43.83;99887.09;5096960;27;45395;-74
2022/04/22 04:50:07;;;;;;;;;11.25;7.25;;;;;15.66;43.85;99865.38;5097094;27;45479;-74
2022/04/22 04:52:33;;;;;;;;;8.25;8.25;;;;;15.63;44.23;99869.19;5097041;27;45284;-75
2022/04/22 04:54:59;;;;;;;;;7.50;7.25;;;;;15.72;44.25;99881.97;5097376;27;45422;-76
2022/04/22 04:57:24;;;;;;;;;10.25;9.50;;;;;15.69;44.29;99879.50;5096765;27;45608;-74
2022/04/22 04:59:50;;;;;;;;;8.75;7.00;;;;;15.66;44.21;99876.19;5097204;27;45776;-73
2022/04/22 05:02:15;;;;;;;;;7.50;6.00;;;;;15.62;44.61;99867.47;5096488;27;45325;-75
2022/04/22 05:04:41;;;;;;;;;10.00;10.00;;;;;15.65;44.58;99872.59;5097407;27;45496;-73
2022/04/22 05:07:06;;;;;;;;;7.25;7.25;;;;;15.52;44.75;99856.50;5078799;27;46352;-74
2022/04/22 05:09:31;;;;;;;;;9.00;8.00;;;;;15.65;44.64;99866.38;5079051;27;46156;-73
2022/04/22 05:11:56;;;;;;;;;13.25;9.00;;;;;15.65;44.59;99866.38;5096691;27;45388;-73
2022/04/22 05:14:23;;;;;;;;;6.50;6.25;;;;;15.58;44.82;99857.03;5078605;27;45375;-73
2022/04/22 05:16:48;;;;;;;;;9.25;7.75;;;;;15.47;44.74;99853.34;5096544;27;45274;-74
2022/04/22 05:19:13;;;;;;;;;9.75;9.50;;;;;15.53;45.14;99857.38;5078095;27;47034;-72
2022/04/22 05:21:38;;;;;;;;;9.75;9.75;;;;;15.55;44.77;99858.16;5098158;27;45329;-74
2022/04/22 05:24:04;;;;;;;;;9.00;9.00;;;;;15.51;44.86;99864.72;5100587;27;45357;-75
2022/04/22 05:26:30;;;;;;;;;10.00;10.00;;;;;15.49;45.36;99866.69;5096040;27;45565;-74
2022/04/22 05:28:55;;;;;;;;;9.75;9.50;;;;;15.31;45.66;99849.28;5096422;27;45488;-73
2022/04/22 05:34:05;;;;;;;;;10.75;9.25;;;;;15.35;45.77;99859.69;5096934;27;45749;-75
2022/04/22 05:36:30;;;;;;;;;9.25;8.25;;;;;15.36;45.32;99865.97;5096455;27;45278;-75
2022/04/22 05:38:56;;;;;;;;;12.75;9.00;;;;;15.34;45.27;99863.38;5096463;27;45367;-77
2022/04/22 05:41:22;;;;;;;;;12.75;12.75;;;;;15.32;45.84;99864.47;5096310;27;45540;-76
2022/04/22 05:43:47;;;;;;;;;11.50;11.00;;;;;15.38;45.64;99874.81;5096459;27;45364;-73
2022/04/22 05:46:12;;;;;;;;;10.00;9.00;;;;;15.37;45.70;99876.66;5096220;27;45468;-73
2022/04/22 05:48:39;;;;;;;;;11.75;8.75;;;;;15.34;45.72;99865.22;5077139;27;45399;-74
2022/04/22 05:51:04;;;;;;;;;11.25;9.75;;;;;15.39;45.81;99866.59;5096399;27;45507;-75
2022/04/22 05:53:30;;;;;;;;;11.00;9.50;;;;;15.32;45.70;99859.94;5077789;27;45273;-74
2022/04/22 05:55:55;;;;;;;;;13.75;10.25;;;;;15.28;46.03;99849.50;5091707;27;45378;-73
2022/04/22 05:58:21;;;;;;;;;9.75;9.75;;;;;15.44;45.71;99877.00;5091967;27;46171;-74
2022/04/22 06:00:47;;;;;;;;;10.50;9.75;;;;;15.40;46.00;99870.97;5091558;27;46059;-73
2022/04/22 06:03:12;;;;;;;;;14.00;11.00;;;;;15.42;46.36;99868.16;5084656;27;45610;-75
2022/04/22 06:05:37;;;;;;;;;10.25;10.25;;;;;15.49;45.98;99872.94;5090711;27;45597;-73
2022/04/22 06:10:51;;;;;;;;;11.25;10.25;;;;;15.50;45.96;99893.59;5092637;27;45689;-73
2022/04/22 06:13:16;;;;;;;;;2.75;0.00;;;;;15.47;46.06;99879.47;5093694;27;45390;-76
2022/04/22 06:15:42;;;;;;;;;11.50;10.50;;;;;15.55;46.11;99881.59;5093287;27;45561;-74
2022/04/22 06:18:07;;;;;;;;;13.50;12.00;;;;;15.57;45.98;99880.47;5075441;27;47239;-73
2022/04/22 06:20:32;;;;;;;;;16.00;11.50;;;;;15.58;46.05;99879.50;5094046;27;45387;-73
2022/04/22 06:22:58;;;;;;;;;11.25;10.50;;;;;15.61;45.92;99868.44;5094245;27;45487;-76
2022/04/22 06:25:24;;;;;;;;;11.50;11.50;;;;;15.60;45.75;99871.28;5093186;27;45426;-73
2022/04/22 06:27:49;;;;;;;;;10.00;9.00;;;;;15.57;46.29;99868.84;5092969;27;45929;-74
2022/04/22 06:30:17;;;;;;;;;10.75;10.75;;;;;15.60;46.51;99863.16;5093195;27;45342;-74
2022/04/22 06:32:45;;;;;;;;;10.00;8.00;;;;;15.63;46.20;99861.09;5107134;27;45249;-79
2022/04/22 06:35:12;;;;;;;;;12.50;12.00;;;;;15.67;46.07;99862.53;5114174;27;45420;-77
2022/04/22 06:37:40;;;;;;;;;8.75;8.75;;;;;15.74;45.80;99871.88;5108395;27;46196;-75
2022/04/22 06:45:47;;;;;;;;;14.50;12.50;;;;;15.79;45.54;99871.50;5115035;27;45549;-79
2022/04/22 06:48:19;;;;;;;;;12.75;10.50;;;;;15.79;45.78;99866.09;5102046;27;45514;-76
2022/04/22 06:50:48;;;;;;;;;12.50;12.25;;;;;15.80;45.60;99868.69;5113517;27;45294;-76
2022/04/22 06:53:17;;;;;;;;;10.75;10.75;;;;;15.75;45.97;99870.03;5114512;27;45320;-77
2022/04/22 06:55:45;;;;;;;;;15.50;10.25;;;;;15.77;45.63;99871.63;5113168;27;45646;-78
2022/04/22 06:58:13;;;;;;;;;12.25;10.75;;;;;15.79;45.58;99877.78;5108421;27;46603;-76
2022/04/22 07:00:40;;;;;;;;;10.75;9.25;;;;;15.79;45.80;99863.41;5086818;27;45352;-73
2022/04/22 07:03:06;;;;;;;;;10.25;9.00;;;;;15.70;45.89;99861.44;5091670;27;45619;-79
2022/04/22 07:05:33;;;;;;;;;11.00;11.00;;;;;15.64;45.76;99846.59;5110684;27;45527;-78
2022/04/22 07:08:03;;;;;;;;;15.00;14.25;;;;;15.77;46.11;99859.97;5111766;27;45340;-76
2022/04/22 07:10:33;;;;;;;;;12.50;9.75;;;;;15.82;45.65;99860.47;5116133;27;45530;-73
2022/04/22 07:12:59;;;;;;;;;13.75;12.75;;;;;15.93;45.57;99873.06;5112336;27;45443;-72
2022/04/22 07:15:25;;;;;;;;;11.75;10.75;;;;;15.84;45.83;99845.81;5113350;27;45365;-70
2022/04/22 07:17:51;;;;;;;;;11.25;8.50;;;;;16.00;45.58;99858.94;5113576;27;45329;-73
2022/04/22 07:20:17;;;;;;;;;12.00;9.25;;;;;16.08;45.30;99875.38;5113659;27;45298;-72
2022/04/22 07:22:44;;;;;;;;;15.00;15.00;;;;;16.08;45.14;99864.56;5113149;27;45403;-71
2022/04/22 07:25:11;;;;;;;;;14.50;13.00;;;;;16.07;45.35;99865.56;5113219;27;46160;-73
2022/04/22 07:27:38;;;;;;;;;15.25;14.00;;;;;16.03;45.24;99852.41;5113366;27;45600;-71
2022/04/22 07:30:07;;;;;;;;;13.75;13.75;;;;;16.05;45.19;99859.44;5099772;27;45425;-71
2022/04/22 07:32:37;;;;;;;;;18.25;15.00;;;;;16.08;45.07;99858.28;5111619;27;45479;-70
2022/04/22 07:35:12;;;;;;;;;18.00;12.25;;;;;16.12;45.34;99862.47;5113718;27;45364;-72
2022/04/22 07:37:57;;;;;;;;;13.00;11.50;;;;;16.15;45.48;99864.94;5113397;27;46240;-70
2022/04/22 07:40:23;;;;;;;;;15.00;13.75;;;;;16.18;45.13;99849.31;5112207;27;45541;-71
2022/04/22 07:48:20;;;;;;;;;14.00;13.00;;;;;16.38;44.76;99857.59;5097064;27;45364;-72
2022/04/22 07:50:47;;;;;;;;;14.00;13.00;;;;;16.40;44.70;99861.91;5108313;27;45452;-70
2022/04/22 07:53:17;;;;;;;;;16.50;12.00;;;;;16.38;44.16;99854.91;5101982;27;45295;-71
2022/04/22 07:55:43;;;;;;;;;15.00;14.00;;;;;16.37;44.30;99851.31;5112749;27;45390;-70
2022/04/22 07:58:15;;;;;;;;;13.00;12.00;;;;;16.43;44.10;99856.22;5112685;27;45676;-69
2022/04/22 08:00:45;;;;;;;;;12.00;12.00;;;;;16.42;44.16;99850.94;5112497;27;45386;-71
2022/04/22 08:03:14;;;;;;;;;15.00;13.25;;;;;16.46;44.20;99855.97;5113018;27;45260;-71
2022/04/22 08:05:39;;;;;;;;;9.75;8.00;;;;;16.50;44.29;99860.13;5113090;27;45437;-71
2022/04/22 08:08:06;;;;;;;;;14.50;13.50;;;;;16.50;44.10;99845.75;5112659;27;46089;-72
2022/04/22 08:10:32;;;;;;;;;15.25;11.50;;;;;16.60;43.95;99857.50;5113552;27;45478;-70
2022/04/22 08:12:58;;;;;;;;;11.25;11.25;;;;;16.68;43.75;99859.56;5116968;27;45560;-70
2022/04/22 08:15:23;;;;;;;;;12.00;12.00;;;;;16.74;43.80;99859.09;5116297;27;45431;-70
2022/04/22 08:17:49;;;;;;;;;16.50;13.00;;;;;16.76;42.87;99852.53;5115462;27;45866;-72
2022/04/22 08:20:14;;;;;;;;;11.75;10.25;;;;;16.80;43.64;99856.69;5116299;27;45523;-70
2022/04/22 08:22:40;;;;;;;;;15.75;12.00;;;;;16.80;43.37;99842.31;5116236;27;45443;-70
2022/04/22 08:25:06;;;;;;;;;12.75;12.75;;;;;16.87;43.40;99844.34;5116142;27;45307;-72
2022/04/22 08:27:31;;;;;;;;;15.50;13.50;;;;;16.92;42.71;99842.13;5115317;27;45503;-73
2022/04/22 08:29:59;;;;;;;;;12.25;12.25;;;;;16.84;43.23;99820.25;5102288;27;45738;-73
2022/04/22 08:32:25;;;;;;;;;14.75;13.25;;;;;16.95;42.67;99835.56;5115519;27;45442;-71
2022/04/22 08:34:51;;;;;;;;;13.75;11.25;;;;;17.01;42.40;99840.47;5116018;27;45393;-72
2022/04/22 08:37:17;;;;;;;;;13.25;11.75;;;;;17.06;41.98;99832.78;5115778;27;46875;-70
2022/04/22 08:39:42;;;;;;;;;12.50;9.50;;;;;17.11;42.17;99832.38;5115721;27;45487;-70
2022/04/22 08:42:11;;;;;;;;;13.00;13.00;;;;;17.13;42.33;99830.38;5114957;27;46072;-72
2022/04/22 08:44:36;;;;;;;;;10.00;10.00;;;;;17.20;42.36;99829.72;5116051;27;45429;-73
2022/04/22 08:49:58;;;;;;;;;14.00;11.25;;;;;17.28;41.20;99820.91;5102943;27;45374;-72
2022/04/22 08:52:26;;;;;;;;;11.00;10.00;;;;;17.32;42.06;99825.94;5115675;27;45633;-72
2022/04/22 08:54:53;;;;;;;;;13.50;11.25;;;;;17.34;40.97;99821.25;5115066;27;45590;-72
2022/04/22 08:57:20;;;;;;;;;12.75;8.75;;;;;17.37;41.03;99818.25;5115279;27;45444;-73
2022/04/22 08:59:45;;;;;;;;;14.50;10.25;;;;;17.42;40.28;99817.88;5115917;27;45642;-72
2022/04/22 09:02:12;;;;;;;;;11.75;10.00;;;;;17.46;40.76;99822.00;5115603;27;45463;-69
2022/04/22 09:04:37;;;;;;;;;11.50;10.50;;;;;17.47;40.72;99818.28;5115569;27;45366;-70
2022/04/22 09:07:04;;;;;;;;;9.00;9.00;;;;;17.51;40.27;99817.03;5114493;27;45475;-70
2022/04/22 09:09:29;;;;;;;;;8.75;7.75;;;;;17.59;40.02;99825.34;5116236;27;45707;-71
2022/04/22 09:12:07;;;;;;;;;10.00;8.75;;;;;17.56;39.37;99813.91;5115025;27;45361;-70
2022/04/22 09:14:32;;;;;;;;;12.25;11.50;;;;;17.63;39.74;99815.97;5115693;27;45551;-70
2022/04/22 09:16:57;;;;;;;;;10.75;10.25;;;;;17.64;39.89;99808.69;5114484;27;46070;-70
2022/04/22 09:19:23;;;;;;;;;8.00;8.00;;;;;17.70;39.88;99822.53;5115530;27;45435;-70
2022/04/22 09:21:56;;;;;;;;;10.25;8.50;;;;;17.74;40.21;99815.00;5114672;27;45531;-68
2022/04/22 09:24:21;;;;;;;;;10.75;10.25;;;;;17.77;39.88;99810.16;5115700;27;45448;-69
2022/04/22 09:27:02;;;;;;;;;10.00;10.00;;;;;17.78;39.41;99811.84;5113260;27;47202;-69
2022/04/22 09:29:28;;;;;;;;;9.75;9.75;;;;;17.78;39.43;99808.28;5115095;27;45240;-68
2022/04/22 09:31:53;;;;;;;;;10.75;9.50;;;;;17.74;39.72;99790.59;5114978;27;46194;-70
2022/04/22 09:34:37;;;;;;;;;11.75;9.00;;;;;17.88;40.03;99797.47;5114432;27;45492;-70
2022/04/22 09:42:47;;;;;;;;;13.25;10.00;;;;;17.92;39.56;99788.94;5114984;27;45291;-70
2022/04/22 09:45:13;;;;;;;;;8.00;6.75;;;;;18.01;39.39;99804.38;5114777;27;45681;-69
2022/04/22 09:47:40;;;;;;;;;10.50;9.00;;;;;17.97;39.21;99808.34;5114211;27;46207;-70
2022/04/22 09:50:11;;;;;;;;;8.50;6.75;;;;;18.02;40.08;99811.50;5114853;27;45465;-72
2022/04/22 09:52:39;;;;;;;;;8.00;8.00;;;;;18.06;39.83;99802.06;5114834;27;45387;-69
2022/04/22 09:55:09;;;;;;;;;10.50;7.75;;;;;18.10;39.44;99806.22;5114452;27;45462;-70
2022/04/22 09:57:55;;;;;;;;;8.75;7.50;;;;;18.13;39.10;99800.50;5114096;27;45414;-69
2022/04/22 10:00:22;;;;;;;;;10.50;9.00;;;;;18.22;38.90;99793.38;5114869;27;45533;-69
2022/04/22 10:02:52;;;;;;;;;9.75;9.75;;;;;18.24;38.79;99790.53;5114481;27;45378;-72
2022/04/22 10:05:23;;;;;;;;;7.75;7.75;;;;;18.24;38.84;99788.66;5114199;27;45354;-73
2022/04/22 10:07:55;;;;;;;;;6.50;6.50;;;;;18.27;38.37;99776.69;5114109;27;46494;-71
2022/04/22 10:10:24;;;;;;;;;8.00;8.00;;;;;18.25;38.05;99771.41;5114385;27;45437;-71
2022/04/22 10:12:54;;;;;;;;;7.75;7.00;;;;;18.26;38.21;99770.41;5114600;27;47353;-74
2022/04/22 10:15:24;;;;;;;;;7.00;7.00;;;;;18.26;38.18;99769.53;5114160;27;45457;-74
2022/04/22 10:17:51;;;;;;;;;8.00;8.00;;;;;18.40;37.32;99777.22;5114224;27;45418;-72
2022/04/22 10:20:18;;;;;;;;;9.75;8.25;;;;;18.44;37.57;99776.81;5113618;27;45511;-74
2022/04/22 10:22:44;;;;;;;;;5.00;5.00;;;;;18.44;37.30;99775.97;5112808;27;45643;-72
2022/04/22 10:25:09;;;;;;;;;6.00;4.75;;;;;18.46;37.35;99772.09;5094427;27;47285;-72
2022/04/22 10:27:37;;;;;;;;;8.75;8.25;;;;;18.53;36.81;99780.53;5113038;27;45216;-73
2022/04/22 10:30:04;;;;;;;;;6.50;6.00;;;;;18.49;36.71;99769.09;5099406;27;45722;-73
2022/04/22 10:32:31;;;;;;;;;9.00;7.25;;;;;18.55;36.53;99773.06;5113868;27;45619;-69
2022/04/22 10:34:58;;;;;;;;;6.00;6.00;;;;;18.58;37.33;99774.69;5114282;27;46221;-71
2022/04/22 10:37:26;;;;;;;;;11.00;7.00;;;;;18.64;36.53;99777.66;5114053;27;46028;-69
2022/04/22 10:39:54;;;;;;;;;5.25;5.00;;;;;18.71;36.69;99773.41;5114160;27;45361;-69
2022/04/22 10:42:29;;;;;;;;;4.25;4.25;;;;;18.77;36.21;99769.22;5114092;27;45259;-70
2022/04/22 10:47:44;;;;;;;;;6.50;6.00;;;;;18.85;35.74;99759.34;5114140;27;45391;-69
2022/04/22 10:51:09;;;;;;;;;5.50;5.50;;;;;18.93;35.57;99755.03;5114790;27;45510;-69
2022/04/22 10:53:49;;;;;;;;;6.00;6.00;;;;;18.96;35.42;99755.59;5034422;28;45614;-69
2022/04/22 10:56:27;;;;;;;;;5.75;5.50;;;;;18.99;35.41;99754.44;5017499;28;45343;-69
2022/04/22 10:59:18;;;;;;;;;7.00;5.00;;;;;18.98;34.48;99744.56;5095365;27;46098;-70
2022/04/22 11:01:43;;;;;;;;;7.75;5.25;;;;;19.01;34.84;99752.44;5113211;27;45349;-69
2022/04/22 11:04:19;;;;;;;;;3.25;3.00;;;;;19.01;34.63;99741.56;5115000;27;45436;-69
2022/04/22 11:06:44;;;;;;;;;5.75;5.75;;;;;19.06;35.65;99741.97;5114095;27;45447;-69
2022/04/22 11:09:10;;;;;;;;;7.00;6.00;;;;;19.15;35.22;99739.22;5108458;27;46130;-70
2022/04/22 11:11:40;;;;;;;;;12.00;9.75;;;;;19.24;35.21;99723.88;5113601;27;45303;-70
2022/04/22 11:14:28;;;;;;;;;7.00;7.00;;;;;19.38;35.01;99736.13;5113915;27;45592;-68
2022/04/22 11:16:55;;;;;;;;;6.50;6.50;;;;;19.46;34.80;99744.38;5113586;27;45398;-69
2022/04/22 11:19:21;;;;;;;;;11.50;8.25;;;;;19.57;34.83;99738.75;5110886;27;45902;-71
2022/04/22 11:21:53;;;;;;;;;8.00;7.00;;;;;19.67;34.47;99746.84;5113878;27;45220;-70
2022/04/22 11:24:26;;;;;;;;;8.50;6.25;;;;;19.78;33.79;99738.50;5113415;27;45380;-70
2022/04/22 11:27:01;;;;;;;;;6.00;6.00;;;;;19.88;33.73;99745.56;5113441;27;45454;-69
2022/04/22 11:29:26;;;;;;;;;4.75;2.25;;;;;19.87;34.21;99716.66;5099580;27;46471;-69
2022/04/22 11:32:16;;;;;;;;;6.50;5.75;;;;;20.05;33.12;99733.00;5113509;27;45342;-70
2022/04/22 11:34:44;;;;;;;;;5.00;5.00;;;;;20.12;33.52;99733.22;5113408;27;45400;-70
2022/04/22 11:37:20;;;;;;;;;5.75;4.25;;;;;20.24;33.47;99732.84;5113740;27;45461;-68
2022/04/22 11:39:48;;;;;;;;;5.50;4.75;;;;;20.43;33.12;99725.53;5112700;27;45669;-69
2022/04/22 11:42:15;;;;;;;;;8.25;7.50;;;;;20.45;32.65;99704.44;5112623;27;45369;-71
2022/04/22 11:44:40;;;;;;;;;10.00;6.50;;;;;20.75;32.99;99729.38;5112895;27;45371;-69
2022/04/22 11:47:06;;;;;;;;;6.50;5.25;;;;;20.91;32.67;99720.44;5116603;27;45567;-70
2022/04/22 11:49:32;;;;;;;;;10.50;6.25;;;;;21.02;32.08;99719.28;5116448;27;46075;-70
2022/04/22 11:51:59;;;;;;;;;6.00;6.00;;;;;21.10;31.47;99719.31;5106329;27;45374;-70
2022/04/22 11:54:25;;;;;;;;;5.00;5.00;;;;;21.18;32.17;99704.94;5116084;27;45479;-68
2022/04/22 11:56:52;;;;;;;;;5.75;5.75;;;;;21.37;31.63;99721.03;5113933;27;45555;-69
2022/04/22 11:59:19;;;;;;;;;7.50;7.00;;;;;21.56;31.53;99714.44;5112158;27;45706;-71
2022/04/22 12:05:32;;;;;;;;;7.00;4.00;;;;;21.90;31.09;99690.66;5116078;27;45385;-70
2022/04/22 12:10:11;;;;;;;;;5.00;5.00;;;;;22.18;31.38;99692.09;5115857;27;45370;-70
2022/04/22 12:12:48;;;;;;;;;6.00;5.50;;;;;22.26;30.91;99699.44;5116935;27;45597;-69
2022/04/22 12:15:17;;;;;;;;;6.75;6.75;;;;;22.44;30.46;99696.53;5116349;27;45337;-73
2022/04/22 12:17:42;;;;;;;;;4.75;4.50;;;;;22.58;31.02;99699.41;5116409;27;45330;-71
2022/04/22 12:20:10;;;;;;;;;6.00;6.00;;;;;22.69;29.82;99680.94;5115862;27;45380;-71
2022/04/22 12:22:35;;;;;;;;;8.00;5.25;;;;;22.85;29.45;99684.53;5115827;27;45390;-69
2022/04/22 12:25:16;;;;;;;;;6.75;6.75;;;;;22.98;29.16;99698.50;5116553;27;45493;-70
2022/04/22 12:27:42;;;;;;;;;6.75;5.25;;;;;23.04;29.05;99687.91;5097688;27;46221;-70
2022/04/22 12:30:10;;;;;;;;;6.00;4.50;;;;;23.27;29.21;99676.00;5114152;27;45467;-71
2022/04/22 12:32:37;;;;;;;;;5.75;5.75;;;;;23.90;28.37;99676.91;5107613;27;45660;-69
2022/04/22 12:35:17;;;;;;;;;8.50;6.50;;;;;24.42;27.71;99682.47;5103222;27;45725;-71
2022/04/22 12:37:52;;;;;;;;;7.00;6.00;;;;;24.70;26.98;99666.28;5125396;27;46523;-69
2022/04/22 12:40:19;;;;;;;;;5.50;5.50;;;;;24.95;26.52;99661.41;5129036;27;46406;-69
2022/04/22 12:42:45;;;;;;;;;7.25;5.75;;;;;25.32;26.63;99669.53;5117120;27;45357;-70
2022/04/22 12:53:42;;;;;;;;;10.00;8.00;;;;;26.44;24.96;99670.81;5117255;27;45716;-70
2022/04/22 12:56:09;;;;;;;;;5.25;4.25;;;;;26.71;24.79;99661.72;5117136;27;45410;-70
2022/04/22 12:58:56;;;;;;;;;7.00;6.00;;;;;27.01;23.79;99656.03;5115775;27;45362;-69
2022/04/22 13:01:31;;;;;;;;;7.50;6.00;;;;;27.26;24.20;99653.63;5116513;27;46386;-70
2022/04/22 13:03:59;;;;;;;;;6.00;3.50;;;;;27.47;23.66;99648.00;5116891;27;45321;-70
2022/04/22 13:06:43;;;;;;;;;4.50;4.50;;;;;26.97;23.81;99652.81;5116649;27;45512;-70
2022/04/22 13:09:11;;;;;;;;;6.25;6.25;;;;;26.40;24.50;99639.28;5116469;27;45507;-70
2022/04/22 13:11:37;;;;;;;;;6.75;6.75;;;;;26.64;24.63;99652.56;5116846;27;46183;-70
2022/04/22 13:14:04;;;;;;;;;5.25;4.00;;;;;27.33;23.50;99641.59;5116781;27;45318;-69
2022/04/22 13:16:29;;;;;;;;;7.00;6.25;;;;;28.13;22.39;99642.69;5117908;27;45369;-70
2022/04/22 13:18:59;;;;;;;;;4.00;4.00;;;;;28.90;21.91;99631.88;5116926;27;45571;-69
2022/04/22 13:21:25;;;;;;;;;6.25;5.00;;;;;29.64;20.92;99630.56;5098343;27;45407;-71
2022/04/22 13:23:50;;;;;;;;;6.00;6.00;;;;;30.21;20.75;99635.09;5115781;27;45185;-69
2022/04/22 13:26:17;;;;;;;;;5.00;5.00;;;;;30.93;19.42;99633.66;5115453;27;45466;-70
2022/04/22 13:28:43;;;;;;;;;5.00;5.00;;;;;31.53;19.40;99631.88;5116451;27;45402;-70
2022/04/22 13:31:08;;;;;;;;;9.50;8.75;;;;;32.02;19.10;99616.06;5097571;27;47120;-71
2022/04/22 13:33:34;;;;;;;;;4.00;4.00;;;;;32.34;18.27;99624.97;5116291;27;45417;-69
2022/04/22 13:36:02;;;;;;;;;6.00;5.00;;;;;31.87;18.86;99624.00;5116700;27;45308;-70
2022/04/22 13:38:32;;;;;;;;;3.50;3.50;;;;;32.14;18.36;99616.97;5115766;27;45501;-72
2022/04/22 13:41:00;;;;;;;;;5.50;4.00;;;;;32.51;17.95;99619.56;5115621;27;46022;-70
2022/04/22 13:43:30;;;;;;;;;6.00;5.00;;;;;32.83;17.96;99614.56;5115717;27;45357;-69
2022/04/22 13:54:07;;;;;;;;;3.50;3.00;;;;;32.64;18.01;99611.88;5115522;27;45369;-69
2022/04/22 13:56:33;;;;;;;;;6.00;5.00;;;;;32.60;17.73;99604.25;5097313;27;45485;-70
2022/04/22 13:58:58;;;;;;;;;3.25;3.25;;;;;31.95;18.31;99607.88;5116182;27;47092;-70
2022/04/22 14:01:24;;;;;;;;;4.00;4.00;;;;;31.33;18.63;99611.06;5106847;27;45450;-70
2022/04/22 14:03:49;;;;;;;;;5.00;5.00;;;;;31.30;18.85;99608.75;5116640;27;45209;-70
2022/04/22 14:06:15;;;;;;;;;5.00;5.00;;;;;31.17;18.82;99620.84;5116370;27;45434;-71
2022/04/22 14:08:40;;;;;;;;;4.50;4.50;;;;;31.58;18.69;99607.09;5114670;27;45524;-70
2022/04/22 14:11:08;;;;;;;;;5.00;5.00;;;;;32.15;18.70;99603.94;5124461;27;46116;-69
2022/04/22 14:13:33;;;;;;;;;5.75;5.00;;;;;32.71;17.28;99597.88;5115778;27;45322;-69
2022/04/22 14:15:59;;;;;;;;;7.50;6.25;;;;;33.26;17.08;99612.19;5115932;27;45467;-69
2022/04/22 14:18:30;;;;;;;;;4.25;4.00;;;;;33.51;16.46;99598.00;5109395;27;45580;-69
2022/04/22 14:20:56;;;;;;;;;4.00;4.00;;;;;33.59;17.16;99586.50;5116142;27;45422;-68
2022/04/22 14:23:22;;;;;;;;;4.25;4.25;;;;;34.02;16.19;99608.19;5115036;27;45391;-70
2022/04/22 14:25:47;;;;;;;;;4.00;4.00;;;;;34.15;16.48;99604.25;5115681;27;45368;-69
2022/04/22 14:28:13;;;;;;;;;4.75;4.50;;;;;34.33;16.50;99598.47;5115145;27;45467;-70
2022/04/22 14:30:38;;;;;;;;;4.25;4.25;;;;;34.31;16.33;99608.16;5114204;27;45792;-69
2022/04/22 14:33:04;;;;;;;;;5.75;4.50;;;;;34.16;16.14;99586.44;5115213;27;45401;-75
2022/04/22 14:35:29;;;;;;;;;4.25;4.25;;;;;34.36;16.12;99597.97;5116131;27;45608;-75
2022/04/22 14:37:57;;;;;;;;;6.25;3.50;;;;;34.47;16.35;99583.09;5115121;27;45580;-76
2022/04/22 14:40:22;;;;;;;;;7.00;7.00;;;;;34.57;16.20;99576.00;5114836;27;45447;-75
2022/04/22 14:42:47;;;;;;;;;7.25;5.00;;;;;34.64;15.68;99590.59;5115433;27;45342;-76
2022/04/22 14:45:13;;;;;;;;;4.25;4.25;;;;;34.54;16.18;99574.56;5115765;27;45349;-75
2022/04/22 14:47:38;;;;;;;;;4.25;4.00;;;;;34.17;16.14;99589.00;5115625;27;45593;-76
2022/04/22 14:50:04;;;;;;;;;6.00;6.00;;;;;33.97;16.34;99593.34;5115775;27;45356;-76
2022/04/22 14:52:30;;;;;;;;;4.00;4.00;;;;;33.93;16.78;99594.94;5116242;27;45248;-76
2022/04/22 14:54:55;;;;;;;;;4.50;3.25;;;;;33.75;16.52;99596.00;5114862;27;45471;-75
2022/04/22 14:57:20;;;;;;;;;3.00;3.00;;;;;33.60;16.95;99593.72;5114986;27;45490;-75
2022/04/22 14:59:46;;;;;;;;;2.00;2.00;;;;;33.77;17.03;99596.59;5095928;27;47148;-74
2022/04/22 15:02:11;;;;;;;;;4.00;4.00;;;;;33.89;16.50;99590.97;5116048;27;45315;-76
2022/04/22 15:04:37;;;;;;;;;8.50;6.25;;;;;33.93;15.87;99593.00;5115976;27;45350;-76
2022/04/22 15:07:03;;;;;;;;;6.75;6.00;;;;;33.90;16.50;99596.28;5115198;27;45554;-75
2022/04/22 15:09:28;;;;;;;;;5.00;5.00;;;;;33.88;16.88;99595.69;5096059;27;46915;-72
2022/04/22 15:11:54;;;;;;;;;7.50;6.00;;;;;33.78;15.82;99595.47;5115009;27;45369;-74
2022/04/22 15:14:20;;;;;;;;;3.25;3.25;;;;;33.66;16.54;99592.75;5115375;27;45353;-74
2022/04/22 15:16:46;;;;;;;;;3.00;3.00;;;;;33.78;17.41;99590.78;5114791;27;46114;-78
2022/04/22 15:24:39;;;;;;;;;5.00;5.00;;;;;33.79;16.78;99588.84;5114159;27;45516;-76
2022/04/22 15:27:05;;;;;;;;;5.00;5.00;;;;;33.51;16.99;99573.00;5114674;27;45539;-77
2022/04/22 15:29:32;;;;;;;;;4.75;4.50;;;;;33.40;16.84;99566.38;5114811;27;45392;-77
2022/04/22 15:31:58;;;;;;;;;5.25;4.25;;;;;33.27;17.30;99588.88;5114860;27;45492;-74
2022/04/22 15:34:24;;;;;;;;;3.00;3.00;;;;;33.16;16.93;99583.34;5114326;27;45787;-73
2022/04/22 15:36:49;;;;;;;;;5.75;4.50;;;;;33.01;17.50;99589.41;5106659;27;45471;-77
2022/04/22 15:39:16;;;;;;;;;5.00;5.00;;;;;33.06;17.15;99581.19;5089523;27;46112;-78
2022/04/22 15:41:43;;;;;;;;;3.00;3.00;;;;;32.91;17.22;99581.72;5116450;27;45488;-74
2022/04/22 15:44:09;;;;;;;;;5.50;5.00;;;;;32.57;17.35;99572.28;5115446;27;45474;-76
2022/04/22 15:46:35;;;;;;;;;4.25;4.25;;;;;32.23;17.55;99582.28;5120478;27;46016;-75
2022/04/22 15:49:02;;;;;;;;;5.50;5.00;;;;;31.95;18.27;99568.22;5114356;27;47076;-75
2022/04/22 15:51:28;;;;;;;;;4.00;4.00;;;;;31.81;17.83;99584.22;5114669;27;45448;-74
2022/04/22 15:53:56;;;;;;;;;5.00;5.00;;;;;31.72;18.24;99580.09;5113799;27;45527;-74
2022/04/22 15:56:24;;;;;;;;;3.50;3.50;;;;;31.70;18.23;99579.47;5114229;27;45452;-74
2022/04/22 15:58:50;;;;;;;;;5.25;3.25;;;;;31.59;17.99;99583.84;5115061;27;45431;-75
2022/04/22 16:01:16;;;;;;;;;5.50;3.50;;;;;31.55;18.79;99579.03;5114478;27;45416;-80
2022/04/22 16:03:50;;;;;;;;;5.00;5.00;;;;;31.54;18.50;99580.09;5114125;27;45361;-72
2022/04/22 16:06:20;;;;;;;;;6.50;5.25;;;;;31.40;18.72;99573.88;5113816;27;45475;-74
2022/04/22 16:08:46;;;;;;;;;3.00;3.00;;;;;31.33;18.70;99573.13;5095207;27;47657;-76
2022/04/22 16:16:43;;;;;;;;;5.75;5.00;;;;;31.08;18.44;99564.91;5115691;27;45368;-76
2022/04/22 16:19:09;;;;;;;;;5.25;5.25;;;;;30.98;18.70;99563.72;5114427;27;46651;-75
2022/04/22 16:21:35;;;;;;;;;4.25;4.25;;;;;30.96;19.12;99561.22;5110270;27;45508;-75
2022/04/22 16:24:03;;;;;;;;;6.00;6.00;;;;;30.91;19.36;99555.50;5114625;27;45341;-75
2022/04/22 16:26:30;;;;;;;;;5.25;5.25;;;;;30.99;19.51;99568.19;5092822;27;46514;-74
2022/04/22 16:28:56;;;;;;;;;6.00;4.25;;;;;30.81;18.60;99550.50;5113017;27;45487;-75
2022/04/22 16:31:22;;;;;;;;;6.75;6.00;;;;;30.64;18.58;99556.88;5115032;27;45413;-76
2022/04/22 16:33:51;;;;;;;;;5.00;5.00;;;;;30.46;19.51;99560.44;5099140;27;45544;-75
2022/04/22 16:36:17;;;;;;;;;5.50;4.00;;;;;30.31;19.34;99563.56;5117596;27;45560;-75
2022/04/22 16:38:45;;;;;;;;;4.25;4.25;;;;;30.08;19.61;99555.91;5117795;27;45321;-75
2022/04/22 16:41:12;;;;;;;;;5.50;5.50;;;;;29.88;20.30;99563.47;5117569;27;45254;-74
2022/04/22 16:43:37;;;;;;;;;5.50;5.50;;;;;29.69;20.25;99576.34;5117222;27;45337;-74
2022/04/22 16:46:07;;;;;;;;;5.50;5.00;;;;;29.50;20.45;99568.19;5117329;27;45417;-75
2022/04/22 16:48:34;;;;;;;;;5.25;5.25;;;;;29.34;20.49;99559.31;5117515;27;46204;-73
2022/04/22 16:51:00;;;;;;;;;5.75;5.75;;;;;29.10;20.86;99554.53;5099169;27;45349;-74
2022/04/22 16:53:25;;;;;;;;;7.75;6.25;;;;;28.96;20.78;99567.56;5117669;27;45618;-74
2022/04/22 16:55:51;;;;;;;;;5.50;5.50;;;;;28.76;21.48;99557.59;5117654;27;45426;-74
2022/04/22 16:58:16;;;;;;;;;6.00;4.75;;;;;28.68;21.83;99571.63;5117362;27;45357;-74
2022/04/22 17:00:41;;;;;;;;;10.25;6.00;;;;;28.51;21.32;99571.22;5117964;27;45398;-75
2022/04/22 17:03:07;;;;;;;;;3.75;3.75;;;;;28.30;21.93;99568.72;5118072;27;45384;-76
2022/04/22 17:05:32;;;;;;;;;7.00;6.00;;;;;28.06;21.99;99565.53;5117235;27;45455;-74